CMA-CGM Fort Saint Pierre — FQFM — position and weather

sailwx.info

Track history (hours):
 
Tides and Currents Weather Stations Pressure Air Temp Water Temp Dewpoint Dewpoint Depression Visibility Wind Speed Wind Dir Waves Ship Positions

CMA-CGM Fort Saint Pierre

Last reported at 2014-Sep-29 00:33 UTC. Time now 2014-Sep-30 13:56 UTC.
Position N 46°44' W 004°09'.

Length 197 m; beam 30 m.

Type: Ship (hazmat cat A). MMSI: 226328000.

Date/timePositionNaut miles runAvg speedWind from/ knotsBaromVisibWave heightAir tempDewpointWater temp
2014-Sep-29 00:33N 46°44' W 004°09'1919.0
2014-Sep-28 23:33N 46°49' W 003°42'1918.9
2014-Sep-28 22:33N 46°53' W 003°15'1919.2
2014-Sep-28 21:33N 46°59' W 002°48'2116.7
2014-Sep-28 20:18N 47°08' W 002°21'1114.2
2014-Sep-28 19:34N 47°17' W 002°11'2 1.2
2014-Sep-28 18:17N 47°18' W 002°09'8 0.3
2014-Sep-27 19:08N 47°12' W 002°17'610.7
2014-Sep-27 18:33N 47°08' W 002°24'3 0.5
2014-Sep-27 12:28N 47°05' W 002°25'15 7.5
2014-Sep-27 10:26N 47°00' W 002°46'5 5.3
2014-Sep-27 09:33N 47°02' W 002°53'7 7.0
2014-Sep-27 08:32N 47°05' W 003°02'1414.1
2014-Sep-27 07:33N 47°11' W 003°20'1515.1
2014-Sep-27 06:33N 47°19' W 003°39'1917.8
2014-Sep-27 05:30N 47°30' W 004°03'3719.0
2014-Sep-27 03:33N 47°50' W 004°48'3618.0
2014-Sep-27 01:33N 48°12' W 005°31'1919.2
2014-Sep-27 00:33N 48°28' W 005°47'1918.8
2014-Sep-26 23:33N 48°46' W 005°55'1919.2
2014-Sep-26 22:33N 48°60' W 005°36'19919.1
2014-Sep-26 12:09N 49°39' W 000°37'1220.8
2014-Sep-26 11:33N 49°34' W 000°20'1717.2
2014-Sep-26 10:33N 49°29' E 000°06'2 2.4
2014-Sep-26 09:32N 49°28' E 000°09'0 0.0
2014-Sep-26 08:32N 49°28' E 000°09'0 0.0
2014-Sep-26 07:29N 49°28' E 000°09'0 0.0
2014-Sep-26 06:32N 49°28' E 000°09'0 0.0
2014-Sep-26 05:32N 49°28' E 000°09'0 0.0
2014-Sep-26 04:32N 49°28' E 000°09'0 0.0
2014-Sep-26 03:32N 49°28' E 000°09'0 0.0
2014-Sep-26 02:32N 49°28' E 000°09'0 0.0
2014-Sep-26 01:32N 49°28' E 000°09'0 0.0
2014-Sep-26 00:32N 49°28' E 000°09'0 0.0
2014-Sep-25 23:32N 49°28' E 000°09'0 0.0
2014-Sep-25 22:32N 49°28' E 000°09'0 0.0
2014-Sep-25 21:32N 49°28' E 000°09'0 0.0
2014-Sep-25 20:32N 49°28' E 000°09'0 0.0
2014-Sep-25 19:32N 49°28' E 000°09'0 0.0
2014-Sep-25 18:32N 49°28' E 000°09'0 0.0
2014-Sep-25 17:32N 49°28' E 000°09'0 0.0
2014-Sep-25 16:32N 49°28' E 000°09'0 0.0
2014-Sep-25 15:32N 49°28' E 000°09'0 0.0
2014-Sep-25 14:32N 49°28' E 000°09'0 0.0
2014-Sep-25 13:32N 49°28' E 000°09'0 0.0
2014-Sep-25 12:32N 49°28' E 000°09'2 2.4
2014-Sep-25 11:33N 49°29' E 000°06'5 5.4
2014-Sep-25 10:33N 49°26' E 000°13'9 9.4
2014-Sep-25 09:33N 49°28' E 000°27'7 5.9
2014-Sep-25 08:26N 49°26' E 000°36'3 0.1
2014-Sep-24 09:20N 49°28' E 000°40'6 8.0
2014-Sep-24 08:31N 49°29' E 000°30'1111.2
2014-Sep-24 07:33N 49°26' E 000°14'1111.4
2014-Sep-24 06:33N 49°29' W 000°03'6 5.9
2014-Sep-24 05:34N 49°31' W 000°11'1010.2
2014-Sep-24 04:32N 49°41' W 000°11'4310.6
2014-Sep-24 00:29N 50°24' W 000°13'1010.5
2014-Sep-23 23:33N 50°29' E 000°01'1111.1
2014-Sep-23 22:33N 50°32' E 000°17'1111.1
2014-Sep-23 21:33N 50°36' E 000°33'1110.6
2014-Sep-23 20:33N 50°41' E 000°48'1110.5
2014-Sep-23 19:29N 50°48' E 001°02'1010.6
2014-Sep-23 18:30N 50°54' E 001°15'1111.5
2014-Sep-23 17:33N 51°01' E 001°28'1111.4
2014-Sep-23 16:34N 51°03' E 001°46'1313.3
2014-Sep-23 15:34N 51°03' E 002°07'3 3.3
2014-Sep-23 14:29N 51°01' E 002°11'0 0.0
2014-Sep-23 13:33N 51°01' E 002°11'0 0.0
2014-Sep-23 12:23N 51°01' E 002°11'0 0.0
2014-Sep-23 11:30N 51°01' E 002°11'0 0.0
2014-Sep-23 10:30N 51°01' E 002°11'0 0.0
2014-Sep-23 09:32N 51°01' E 002°11'0 0.0
2014-Sep-23 08:33N 51°01' E 002°11'0 0.0
2014-Sep-23 07:33N 51°01' E 002°11'0 0.0
2014-Sep-23 06:30N 51°01' E 002°11'0 0.0
2014-Sep-23 05:27N 51°01' E 002°11'0 0.0
2014-Sep-23 04:29N 51°01' E 002°11'0 0.0
2014-Sep-23 03:32N 51°01' E 002°11'0 0.0
2014-Sep-23 02:32N 51°01' E 002°11'0 0.0
2014-Sep-23 01:29N 51°01' E 002°11'0 0.0
2014-Sep-23 00:29N 51°01' E 002°11'0 0.0
2014-Sep-22 23:32N 51°01' E 002°11'0 0.0
2014-Sep-22 22:29N 51°01' E 002°11'0 0.0
2014-Sep-22 21:26N 51°01' E 002°11'0 0.0
2014-Sep-22 20:30N 51°01' E 002°11'0 0.0
2014-Sep-22 19:30N 51°01' E 002°11'0 0.0
2014-Sep-22 18:33N 51°01' E 002°11'0 0.0
2014-Sep-22 17:32N 51°01' E 002°11'0 0.0
2014-Sep-22 16:33N 51°01' E 002°11'0 0.0
2014-Sep-22 15:32N 51°01' E 002°11'0 0.0
2014-Sep-22 14:29N 51°01' E 002°11'0 0.0
2014-Sep-22 13:33N 51°01' E 002°11'0 0.0
2014-Sep-22 12:32N 51°01' E 002°11'0 0.0
2014-Sep-22 11:33N 51°01' E 002°11'0 0.0
2014-Sep-22 10:32N 51°01' E 002°11'0 0.0
2014-Sep-22 09:32N 51°01' E 002°11'0 0.0
2014-Sep-22 08:32N 51°01' E 002°11'0 0.0
2014-Sep-22 07:32N 51°01' E 002°11'0 0.0
2014-Sep-22 06:29N 51°01' E 002°11'0 0.0
2014-Sep-22 05:32N 51°01' E 002°11'0 0.0
2014-Sep-22 04:29N 51°01' E 002°11'0 0.0
2014-Sep-22 03:32N 51°01' E 002°11'1 0.6
2014-Sep-22 02:33N 51°01' E 002°10'1212.3
2014-Sep-22 01:33N 51°02' E 001°51'8 7.6
2014-Sep-22 00:33N 50°60' E 001°39'1313.1
2014-Sep-21 23:33N 50°49' E 001°27'3015.0
2014-Sep-21 21:33N 50°27' E 000°54'2020.1
2014-Sep-21 20:33N 50°22' E 000°24'  
2014-Sep-19 06:04N 40°06' W 024°39'1019.5
2014-Sep-19 05:33N 39°60' W 024°50'2019.7
2014-Sep-19 04:33N 39°47' W 025°09'2019.6
2014-Sep-19 03:32N 39°34' W 025°28'3919.6
2014-Sep-19 01:32N 39°08' W 026°07'  
Track history (hours):
 
Tides and Currents Weather Stations Pressure Air Temp Water Temp Dewpoint Dewpoint Depression Visibility Wind Speed Wind Dir Waves Ship Positions

CMA-CGM Fort Saint Pierre

Last reported at 2014-Sep-29 00:33 UTC. Time now 2014-Sep-30 13:56 UTC.
Position N 46°44' W 004°09'.

Length 197 m; beam 30 m.

Type: Ship (hazmat cat A). MMSI: 226328000.

Date/timePositionNaut miles runAvg speedWind from/ knotsBaromVisibWave heightAir tempDewpointWater temp
2014-Sep-29 00:33N 46°44' W 004°09'1919.0
2014-Sep-28 23:33N 46°49' W 003°42'1918.9
2014-Sep-28 22:33N 46°53' W 003°15'1919.2
2014-Sep-28 21:33N 46°59' W 002°48'2116.7
2014-Sep-28 20:18N 47°08' W 002°21'1114.2
2014-Sep-28 19:34N 47°17' W 002°11'2 1.2
2014-Sep-28 18:17N 47°18' W 002°09'8 0.3
2014-Sep-27 19:08N 47°12' W 002°17'610.7
2014-Sep-27 18:33N 47°08' W 002°24'3 0.5
2014-Sep-27 12:28N 47°05' W 002°25'15 7.5
2014-Sep-27 10:26N 47°00' W 002°46'5 5.3
2014-Sep-27 09:33N 47°02' W 002°53'7 7.0
2014-Sep-27 08:32N 47°05' W 003°02'1414.1
2014-Sep-27 07:33N 47°11' W 003°20'1515.1
2014-Sep-27 06:33N 47°19' W 003°39'1917.8
2014-Sep-27 05:30N 47°30' W 004°03'3719.0
2014-Sep-27 03:33N 47°50' W 004°48'3618.0
2014-Sep-27 01:33N 48°12' W 005°31'1919.2
2014-Sep-27 00:33N 48°28' W 005°47'1918.8
2014-Sep-26 23:33N 48°46' W 005°55'1919.2
2014-Sep-26 22:33N 48°60' W 005°36'19919.1
2014-Sep-26 12:09N 49°39' W 000°37'1220.8
2014-Sep-26 11:33N 49°34' W 000°20'1717.2
2014-Sep-26 10:33N 49°29' E 000°06'2 2.4
2014-Sep-26 09:32N 49°28' E 000°09'0 0.0
2014-Sep-26 08:32N 49°28' E 000°09'0 0.0
2014-Sep-26 07:29N 49°28' E 000°09'0 0.0
2014-Sep-26 06:32N 49°28' E 000°09'0 0.0
2014-Sep-26 05:32N 49°28' E 000°09'0 0.0
2014-Sep-26 04:32N 49°28' E 000°09'0 0.0
2014-Sep-26 03:32N 49°28' E 000°09'0 0.0
2014-Sep-26 02:32N 49°28' E 000°09'0 0.0
2014-Sep-26 01:32N 49°28' E 000°09'0 0.0
2014-Sep-26 00:32N 49°28' E 000°09'0 0.0
2014-Sep-25 23:32N 49°28' E 000°09'0 0.0
2014-Sep-25 22:32N 49°28' E 000°09'0 0.0
2014-Sep-25 21:32N 49°28' E 000°09'0 0.0
2014-Sep-25 20:32N 49°28' E 000°09'0 0.0
2014-Sep-25 19:32N 49°28' E 000°09'0 0.0
2014-Sep-25 18:32N 49°28' E 000°09'0 0.0
2014-Sep-25 17:32N 49°28' E 000°09'0 0.0
2014-Sep-25 16:32N 49°28' E 000°09'0 0.0
2014-Sep-25 15:32N 49°28' E 000°09'0 0.0
2014-Sep-25 14:32N 49°28' E 000°09'0 0.0
2014-Sep-25 13:32N 49°28' E 000°09'0 0.0
2014-Sep-25 12:32N 49°28' E 000°09'2 2.4
2014-Sep-25 11:33N 49°29' E 000°06'5 5.4
2014-Sep-25 10:33N 49°26' E 000°13'9 9.4
2014-Sep-25 09:33N 49°28' E 000°27'7 5.9
2014-Sep-25 08:26N 49°26' E 000°36'3 0.1
2014-Sep-24 09:20N 49°28' E 000°40'6 8.0
2014-Sep-24 08:31N 49°29' E 000°30'1111.2
2014-Sep-24 07:33N 49°26' E 000°14'1111.4
2014-Sep-24 06:33N 49°29' W 000°03'6 5.9
2014-Sep-24 05:34N 49°31' W 000°11'1010.2
2014-Sep-24 04:32N 49°41' W 000°11'4310.6
2014-Sep-24 00:29N 50°24' W 000°13'1010.5
2014-Sep-23 23:33N 50°29' E 000°01'1111.1
2014-Sep-23 22:33N 50°32' E 000°17'1111.1
2014-Sep-23 21:33N 50°36' E 000°33'1110.6
2014-Sep-23 20:33N 50°41' E 000°48'1110.5
2014-Sep-23 19:29N 50°48' E 001°02'1010.6
2014-Sep-23 18:30N 50°54' E 001°15'1111.5
2014-Sep-23 17:33N 51°01' E 001°28'1111.4
2014-Sep-23 16:34N 51°03' E 001°46'1313.3
2014-Sep-23 15:34N 51°03' E 002°07'3 3.3
2014-Sep-23 14:29N 51°01' E 002°11'0 0.0
2014-Sep-23 13:33N 51°01' E 002°11'0 0.0
2014-Sep-23 12:23N 51°01' E 002°11'0 0.0
2014-Sep-23 11:30N 51°01' E 002°11'0 0.0
2014-Sep-23 10:30N 51°01' E 002°11'0 0.0
2014-Sep-23 09:32N 51°01' E 002°11'0 0.0
2014-Sep-23 08:33N 51°01' E 002°11'0 0.0
2014-Sep-23 07:33N 51°01' E 002°11'0 0.0
2014-Sep-23 06:30N 51°01' E 002°11'0 0.0
2014-Sep-23 05:27N 51°01' E 002°11'0 0.0
2014-Sep-23 04:29N 51°01' E 002°11'0 0.0
2014-Sep-23 03:32N 51°01' E 002°11'0 0.0
2014-Sep-23 02:32N 51°01' E 002°11'0 0.0
2014-Sep-23 01:29N 51°01' E 002°11'0 0.0
2014-Sep-23 00:29N 51°01' E 002°11'0 0.0
2014-Sep-22 23:32N 51°01' E 002°11'0 0.0
2014-Sep-22 22:29N 51°01' E 002°11'0 0.0
2014-Sep-22 21:26N 51°01' E 002°11'0 0.0
2014-Sep-22 20:30N 51°01' E 002°11'0 0.0
2014-Sep-22 19:30N 51°01' E 002°11'0 0.0
2014-Sep-22 18:33N 51°01' E 002°11'0 0.0
2014-Sep-22 17:32N 51°01' E 002°11'0 0.0
2014-Sep-22 16:33N 51°01' E 002°11'0 0.0
2014-Sep-22 15:32N 51°01' E 002°11'0 0.0
2014-Sep-22 14:29N 51°01' E 002°11'0 0.0
2014-Sep-22 13:33N 51°01' E 002°11'0 0.0
2014-Sep-22 12:32N 51°01' E 002°11'0 0.0
2014-Sep-22 11:33N 51°01' E 002°11'0 0.0
2014-Sep-22 10:32N 51°01' E 002°11'0 0.0
2014-Sep-22 09:32N 51°01' E 002°11'0 0.0
2014-Sep-22 08:32N 51°01' E 002°11'0 0.0
2014-Sep-22 07:32N 51°01' E 002°11'0 0.0
2014-Sep-22 06:29N 51°01' E 002°11'0 0.0
2014-Sep-22 05:32N 51°01' E 002°11'0 0.0
2014-Sep-22 04:29N 51°01' E 002°11'0 0.0
2014-Sep-22 03:32N 51°01' E 002°11'1 0.6
2014-Sep-22 02:33N 51°01' E 002°10'1212.3
2014-Sep-22 01:33N 51°02' E 001°51'8 7.6
2014-Sep-22 00:33N 50°60' E 001°39'1313.1
2014-Sep-21 23:33N 50°49' E 001°27'3015.0
2014-Sep-21 21:33N 50°27' E 000°54'2020.1
2014-Sep-21 20:33N 50°22' E 000°24'  
2014-Sep-19 06:04N 40°06' W 024°39'1019.5
2014-Sep-19 05:33N 39°60' W 024°50'2019.7
2014-Sep-19 04:33N 39°47' W 025°09'2019.6
2014-Sep-19 03:32N 39°34' W 025°28'3919.6
2014-Sep-19 01:32N 39°08' W 026°07'  

Dump ship's entire track history